Time;durP1;ratioP1;P1;durP2;ratioP2;P2;SDS_P1;SDS_P2;PMS_P1;PMS_P2;Temp;Humidity;BMP_temperature;BMP_pressure;BME280_temperature;BME280_humidity;BME280_pressure;Samples;Min_cycle;Max_cycle;Signal;HPM_P1;HPM_P2
2024/02/06 00:00:17;;;;;;;100.00;75.75;;;5.80;99.90;;;;;;5039537;28;20225;-79
2024/02/06 00:02:46;;;;;;;96.57;72.43;;;5.90;99.90;;;;;;5041982;28;20303;-78
2024/02/06 00:05:13;;;;;;;92.50;71.18;;;5.90;99.90;;;;;;5039161;28;20238;-76
2024/02/06 00:07:40;;;;;;;88.32;69.60;;;5.90;99.90;;;;;;5051836;28;20216;-78
2024/02/06 00:10:07;;;;;;;88.90;67.97;;;5.90;99.90;;;;;;5041705;28;20275;-76
2024/02/06 00:12:34;;;;;;;90.82;69.55;;;5.90;99.90;;;;;;5039858;28;20696;-78
2024/02/06 00:15:01;;;;;;;91.03;71.95;;;5.90;99.90;;;;;;5042040;28;20243;-77
2024/02/06 00:17:28;;;;;;;91.97;67.35;;;5.80;99.90;;;;;;5038403;28;20256;-78
2024/02/06 00:19:56;;;;;;;91.25;71.80;;;5.90;99.90;;;;;;5038694;28;21011;-78
2024/02/06 00:22:23;;;;;;;92.57;71.53;;;5.90;99.90;;;;;;5040947;28;20255;-77
2024/02/06 00:24:50;;;;;;;89.22;69.10;;;6.00;99.90;;;;;;5040623;28;20791;-77
2024/02/06 00:27:17;;;;;;;97.13;73.20;;;6.00;99.90;;;;;;5039137;28;20342;-78
2024/02/06 00:29:44;;;;;;;93.00;71.10;;;5.90;99.90;;;;;;5039293;28;20683;-76
2024/02/06 00:32:12;;;;;;;93.63;70.60;;;5.90;99.90;;;;;;5037861;28;20280;-77
2024/02/06 00:34:39;;;;;;;88.78;68.30;;;5.90;99.90;;;;;;5040305;28;20271;-76
2024/02/06 00:37:07;;;;;;;94.07;73.95;;;5.80;99.90;;;;;;5040484;28;20873;-76
2024/02/06 00:39:34;;;;;;;94.10;73.10;;;5.70;99.90;;;;;;5038342;28;20725;-77
2024/02/06 00:42:01;;;;;;;93.03;71.75;;;5.70;99.90;;;;;;5040609;28;20223;-78
2024/02/06 00:44:28;;;;;;;85.60;67.80;;;5.70;99.90;;;;;;5039729;28;20219;-77
2024/02/06 00:46:55;;;;;;;96.60;73.18;;;5.70;99.90;;;;;;5038502;28;20262;-77
2024/02/06 00:49:22;;;;;;;97.35;73.90;;;5.70;99.90;;;;;;5035034;28;20327;-75
2024/02/06 00:51:49;;;;;;;93.22;71.20;;;5.70;99.90;;;;;;5036022;28;20315;-78
2024/02/06 00:54:17;;;;;;;95.32;74.68;;;5.70;99.90;;;;;;5036833;28;20296;-77
2024/02/06 00:56:44;;;;;;;98.13;73.25;;;5.70;99.90;;;;;;5037632;28;20862;-77
2024/02/06 00:59:11;;;;;;;92.80;70.25;;;5.70;99.90;;;;;;5035067;28;20238;-76
2024/02/06 01:01:38;;;;;;;92.05;71.85;;;5.70;99.90;;;;;;5035869;28;20246;-76
2024/02/06 01:04:06;;;;;;;97.13;70.95;;;5.70;99.90;;;;;;5038066;28;20264;-78
2024/02/06 01:06:33;;;;;;;86.20;68.38;;;5.60;99.90;;;;;;5041553;28;20606;-79
2024/02/06 01:09:00;;;;;;;88.72;68.28;;;5.60;99.90;;;;;;5041266;28;20263;-79
2024/02/06 01:11:28;;;;;;;97.30;74.45;;;5.60;99.90;;;;;;5050578;28;20297;-80
2024/02/06 01:13:55;;;;;;;88.05;68.07;;;5.60;99.90;;;;;;5048498;28;20316;-78
2024/02/06 01:16:22;;;;;;;94.38;70.45;;;5.60;99.90;;;;;;5036433;28;20246;-78
2024/02/06 01:18:49;;;;;;;95.45;72.40;;;5.60;99.90;;;;;;5038652;28;20288;-79
2024/02/06 01:21:16;;;;;;;96.00;73.63;;;5.50;99.90;;;;;;5043267;28;20843;-79
2024/02/06 01:23:43;;;;;;;92.47;69.25;;;5.30;99.90;;;;;;5042073;28;20289;-79
2024/02/06 01:26:14;;;;;;;93.93;70.40;;;5.20;99.90;;;;;;5042014;28;20222;-78
2024/02/06 01:28:42;;;;;;;94.32;69.60;;;5.20;99.90;;;;;;5041967;28;20231;-79
2024/02/06 01:31:11;;;;;;;79.93;63.33;;;5.20;99.90;;;;;;5042272;28;20276;-79
2024/02/06 01:33:38;;;;;;;85.97;65.63;;;5.30;99.90;;;;;;5040947;28;20268;-78
2024/02/06 01:36:05;;;;;;;90.40;67.47;;;5.30;99.90;;;;;;5040563;28;20254;-79
2024/02/06 01:38:32;;;;;;;79.97;62.13;;;5.40;99.90;;;;;;5033807;28;20289;-78
2024/02/06 01:40:59;;;;;;;86.03;64.50;;;5.40;99.90;;;;;;5037583;28;20222;-78
2024/02/06 01:43:26;;;;;;;95.10;68.18;;;5.30;99.90;;;;;;5036317;28;20238;-77
2024/02/06 01:45:55;;;;;;;86.30;66.63;;;5.30;99.90;;;;;;5036704;28;20776;-76
2024/02/06 01:48:23;;;;;;;101.00;76.05;;;5.30;99.90;;;;;;5036743;28;20219;-77
2024/02/06 01:50:52;;;;;;;93.78;70.55;;;5.30;99.90;;;;;;5037415;28;20300;-76
2024/02/06 01:53:20;;;;;;;91.50;68.30;;;5.30;99.90;;;;;;5039028;28;20226;-77
2024/02/06 01:55:48;;;;;;;92.40;68.25;;;5.20;99.90;;;;;;5040098;28;20272;-77
2024/02/06 01:58:16;;;;;;;84.07;65.85;;;5.20;99.90;;;;;;5039793;28;20235;-79
2024/02/06 02:00:43;;;;;;;86.53;65.65;;;5.20;99.90;;;;;;5051599;28;20987;-80
2024/02/06 02:03:13;;;;;;;84.95;65.38;;;5.20;99.90;;;;;;5045114;28;20315;-76
2024/02/06 02:05:44;;;;;;;90.95;66.70;;;5.20;99.90;;;;;;5040099;28;20655;-77
2024/02/06 02:08:11;;;;;;;93.65;68.43;;;5.20;99.90;;;;;;5036876;28;20233;-77
2024/02/06 02:10:38;;;;;;;83.85;65.10;;;5.20;99.90;;;;;;5038744;28;20280;-78
2024/02/06 02:13:05;;;;;;;90.22;68.95;;;5.20;99.90;;;;;;5037099;28;20202;-78
2024/02/06 02:15:32;;;;;;;81.63;63.20;;;5.10;99.90;;;;;;5038149;28;20218;-76
2024/02/06 02:17:59;;;;;;;89.13;67.07;;;5.10;99.90;;;;;;5038236;28;20223;-76
2024/02/06 02:20:27;;;;;;;90.32;67.63;;;5.00;99.90;;;;;;5036524;28;20242;-76
2024/02/06 02:22:56;;;;;;;78.90;58.75;;;5.00;99.90;;;;;;5038373;28;20234;-75
2024/02/06 02:25:24;;;;;;;85.78;64.15;;;5.00;99.90;;;;;;5036143;28;20299;-78
2024/02/06 02:27:51;;;;;;;84.15;64.10;;;5.00;99.90;;;;;;5037150;28;20217;-76
2024/02/06 02:30:21;;;;;;;82.13;61.90;;;5.00;99.90;;;;;;5039051;28;20654;-78
2024/02/06 02:32:48;;;;;;;84.72;64.93;;;5.00;99.90;;;;;;5039609;28;20265;-77
2024/02/06 02:35:15;;;;;;;93.13;69.30;;;5.00;99.90;;;;;;5034389;28;20258;-76
2024/02/06 02:37:42;;;;;;;85.10;66.35;;;5.00;99.90;;;;;;5038110;28;20853;-76
2024/02/06 02:40:11;;;;;;;91.03;70.60;;;5.00;99.90;;;;;;5038656;28;20246;-76
2024/02/06 02:42:38;;;;;;;90.90;65.90;;;5.00;99.90;;;;;;5031152;28;20830;-76
2024/02/06 02:45:05;;;;;;;90.25;66.60;;;5.00;99.90;;;;;;5037682;28;20411;-77
2024/02/06 02:47:33;;;;;;;88.15;65.90;;;5.10;99.90;;;;;;5032464;28;20214;-76
2024/02/06 02:50:00;;;;;;;87.25;66.30;;;5.10;99.90;;;;;;5034474;28;20250;-76
2024/02/06 02:52:27;;;;;;;82.68;63.58;;;5.10;99.90;;;;;;5035550;28;20231;-76
2024/02/06 02:54:54;;;;;;;87.15;64.70;;;5.10;99.90;;;;;;5036095;28;20811;-77
2024/02/06 02:57:22;;;;;;;86.35;62.67;;;5.10;99.90;;;;;;5037843;28;20257;-77
2024/02/06 02:59:49;;;;;;;82.35;62.30;;;5.10;99.90;;;;;;5037965;28;20328;-77
2024/02/06 03:02:16;;;;;;;87.60;65.03;;;5.00;99.90;;;;;;5038786;28;20222;-77
2024/02/06 03:04:43;;;;;;;106.63;76.20;;;5.00;99.90;;;;;;5037660;28;20250;-76
2024/02/06 03:07:10;;;;;;;91.93;69.32;;;5.00;99.90;;;;;;5037681;28;20258;-78
2024/02/06 03:09:37;;;;;;;87.80;65.80;;;5.00;99.90;;;;;;5036084;28;20261;-76
2024/02/06 03:12:04;;;;;;;88.28;64.30;;;5.00;99.90;;;;;;5039985;28;20222;-76
2024/02/06 03:14:33;;;;;;;92.05;68.30;;;4.90;99.90;;;;;;5039390;28;20945;-76
2024/02/06 03:16:59;;;;;;;79.40;60.25;;;4.90;99.90;;;;;;5039601;28;20776;-77
2024/02/06 03:19:26;;;;;;;87.55;66.78;;;4.80;99.90;;;;;;5036347;28;20225;-77
2024/02/06 03:21:53;;;;;;;85.13;64.95;;;4.70;99.90;;;;;;5040631;28;20254;-77
2024/02/06 03:24:27;;;;;;;83.95;63.50;;;4.70;99.90;;;;;;5040482;28;20245;-77
2024/02/06 03:26:54;;;;;;;80.07;61.85;;;4.60;99.90;;;;;;5040156;28;20218;-78
2024/02/06 03:29:21;;;;;;;90.88;68.13;;;4.60;99.90;;;;;;5037708;28;20717;-76
2024/02/06 03:31:49;;;;;;;90.93;69.78;;;4.60;99.90;;;;;;5042886;28;20222;-75
2024/02/06 03:34:16;;;;;;;80.65;62.75;;;4.50;99.90;;;;;;5038441;28;20218;-75
2024/02/06 03:36:43;;;;;;;82.53;61.75;;;4.50;99.90;;;;;;5041263;28;20273;-76
2024/02/06 03:39:12;;;;;;;82.90;63.00;;;4.50;99.90;;;;;;5048661;28;20230;-76
2024/02/06 03:41:39;;;;;;;85.53;64.53;;;4.50;99.90;;;;;;5052793;28;20218;-77
2024/02/06 03:44:06;;;;;;;86.07;63.03;;;4.40;99.90;;;;;;5045809;28;20219;-77
2024/02/06 03:46:33;;;;;;;80.93;60.85;;;4.40;99.90;;;;;;5039017;28;20226;-77
2024/02/06 03:49:02;;;;;;;81.22;60.30;;;4.40;99.90;;;;;;5037959;28;20300;-79
2024/02/06 03:51:29;;;;;;;81.40;61.72;;;4.40;99.90;;;;;;5042176;28;20227;-77
2024/02/06 03:53:56;;;;;;;81.28;60.83;;;4.50;99.90;;;;;;5046559;28;20246;-78
2024/02/06 03:56:23;;;;;;;82.28;60.67;;;4.50;99.90;;;;;;5055262;28;20827;-79
2024/02/06 03:58:49;;;;;;;89.53;64.53;;;4.50;99.90;;;;;;5036506;28;21012;-77
2024/02/06 04:01:17;;;;;;;91.05;69.38;;;4.60;99.90;;;;;;5037193;28;20737;-77
2024/02/06 04:03:45;;;;;;;86.30;64.82;;;4.60;99.90;;;;;;5041706;28;20298;-75
2024/02/06 04:06:14;;;;;;;91.63;66.05;;;4.60;99.90;;;;;;5042777;28;20289;-76
2024/02/06 04:08:41;;;;;;;89.25;65.55;;;4.60;99.90;;;;;;5036911;28;20250;-77
2024/02/06 04:11:09;;;;;;;82.82;62.55;;;4.50;99.90;;;;;;5038456;28;20762;-76
2024/02/06 04:13:36;;;;;;;78.35;58.50;;;4.50;99.90;;;;;;5041540;28;20196;-76
2024/02/06 04:16:05;;;;;;;85.30;64.05;;;4.50;99.90;;;;;;5036474;28;20535;-76
2024/02/06 04:18:32;;;;;;;82.22;61.47;;;4.50;99.90;;;;;;5039101;28;20207;-76
2024/02/06 04:20:59;;;;;;;81.32;61.35;;;4.40;99.90;;;;;;5037738;28;20254;-75
2024/02/06 04:23:28;;;;;;;91.00;65.07;;;4.40;99.90;;;;;;5035458;28;20983;-77
2024/02/06 04:25:55;;;;;;;84.15;63.80;;;4.40;99.90;;;;;;5036918;28;20878;-77
2024/02/06 04:28:22;;;;;;;88.80;65.00;;;4.40;99.90;;;;;;5043289;28;20214;-77
2024/02/06 04:30:49;;;;;;;91.03;66.13;;;4.40;99.90;;;;;;5040432;28;20254;-77
2024/02/06 04:33:16;;;;;;;86.25;65.88;;;4.40;99.90;;;;;;5044142;28;20203;-78
2024/02/06 04:35:43;;;;;;;85.70;64.70;;;4.30;99.90;;;;;;5039788;28;20321;-75
2024/02/06 04:38:11;;;;;;;81.57;60.72;;;4.30;99.90;;;;;;5036817;28;20234;-76
2024/02/06 04:40:39;;;;;;;83.60;63.85;;;4.20;99.90;;;;;;5038411;28;20327;-76
2024/02/06 04:43:06;;;;;;;87.57;66.53;;;4.20;99.90;;;;;;5043195;28;20234;-77
2024/02/06 04:45:33;;;;;;;101.85;72.30;;;4.20;99.90;;;;;;5043808;28;20214;-78
2024/02/06 04:48:00;;;;;;;90.72;69.28;;;4.10;99.90;;;;;;5038762;28;20297;-78
2024/02/06 04:50:27;;;;;;;86.00;65.88;;;4.10;99.90;;;;;;5038563;28;20400;-79
2024/02/06 04:52:55;;;;;;;91.28;67.85;;;4.10;99.90;;;;;;5039687;28;20231;-76
2024/02/06 04:55:22;;;;;;;83.68;62.42;;;4.20;99.90;;;;;;5039871;28;20215;-76
2024/02/06 04:57:50;;;;;;;85.97;66.45;;;4.20;99.90;;;;;;5037879;28;20231;-76
2024/02/06 05:00:17;;;;;;;80.00;59.53;;;4.20;99.90;;;;;;5037024;28;20254;-77
2024/02/06 05:02:45;;;;;;;85.18;63.17;;;4.10;99.90;;;;;;5038391;28;20293;-76
2024/02/06 05:05:13;;;;;;;78.85;59.92;;;4.10;99.90;;;;;;5041489;28;20310;-78
2024/02/06 05:07:40;;;;;;;84.03;62.42;;;4.10;99.90;;;;;;5040099;28;20285;-78
2024/02/06 05:10:10;;;;;;;76.13;56.88;;;4.10;99.90;;;;;;5038799;28;20249;-78
2024/02/06 05:12:37;;;;;;;82.15;61.75;;;4.10;99.90;;;;;;5043689;28;20195;-77
2024/02/06 05:15:06;;;;;;;80.25;59.97;;;4.10;99.90;;;;;;5043742;28;20273;-78
2024/02/06 05:17:33;;;;;;;81.68;60.08;;;4.10;99.90;;;;;;5041830;28;20288;-77
2024/02/06 05:20:00;;;;;;;99.38;72.45;;;4.10;99.90;;;;;;5035943;28;20219;-78
2024/02/06 05:22:27;;;;;;;87.43;63.17;;;4.10;99.90;;;;;;5039935;28;20249;-76
2024/02/06 05:24:54;;;;;;;82.03;61.53;;;4.10;99.90;;;;;;5037079;28;20737;-77
2024/02/06 05:27:21;;;;;;;85.32;63.10;;;4.10;99.90;;;;;;5037811;28;20281;-77
2024/02/06 05:29:48;;;;;;;90.90;67.22;;;4.10;99.90;;;;;;5040967;28;20272;-78
2024/02/06 05:32:16;;;;;;;82.18;61.90;;;4.10;99.90;;;;;;5041097;28;20203;-77
2024/02/06 05:34:43;;;;;;;82.50;60.92;;;4.10;99.90;;;;;;5038208;28;20218;-76
2024/02/06 05:37:10;;;;;;;77.80;58.70;;;4.10;99.90;;;;;;5037905;28;20273;-75
2024/02/06 05:39:37;;;;;;;78.28;58.15;;;4.10;99.90;;;;;;5037974;28;20231;-76
2024/02/06 05:42:04;;;;;;;78.95;60.42;;;4.10;99.90;;;;;;5034567;28;20251;-76
2024/02/06 05:44:31;;;;;;;82.55;60.97;;;4.10;99.90;;;;;;5042133;28;20228;-77
2024/02/06 05:46:58;;;;;;;83.88;59.88;;;4.10;99.90;;;;;;5036632;28;20238;-77
2024/02/06 05:49:27;;;;;;;81.55;60.50;;;4.10;99.90;;;;;;5037329;28;20221;-77
2024/02/06 05:51:53;;;;;;;88.82;64.43;;;4.10;99.90;;;;;;5051564;28;20270;-76
2024/02/06 05:54:21;;;;;;;88.55;64.80;;;4.10;99.90;;;;;;5037894;28;20247;-77
2024/02/06 05:56:48;;;;;;;92.93;68.13;;;4.10;99.90;;;;;;5036340;28;21152;-75
2024/02/06 05:59:15;;;;;;;109.53;78.10;;;4.10;99.90;;;;;;5036562;28;20302;-76
2024/02/06 06:01:42;;;;;;;85.28;64.20;;;4.10;99.90;;;;;;5033947;28;20305;-76
2024/02/06 06:04:10;;;;;;;84.03;62.50;;;4.00;99.90;;;;;;5031523;28;20276;-76
2024/02/06 06:06:38;;;;;;;86.03;63.05;;;4.00;99.90;;;;;;5037469;28;20226;-77
2024/02/06 06:09:07;;;;;;;75.68;58.50;;;4.00;99.90;;;;;;5043798;28;20254;-77
2024/02/06 06:11:34;;;;;;;84.70;61.88;;;4.00;99.90;;;;;;5050989;28;20230;-77
2024/02/06 06:14:01;;;;;;;85.70;63.05;;;4.00;99.90;;;;;;5042912;28;20783;-78
2024/02/06 06:16:28;;;;;;;80.45;58.65;;;4.00;99.90;;;;;;5036660;28;20218;-76
2024/02/06 06:18:55;;;;;;;79.35;59.33;;;4.00;99.90;;;;;;5029906;28;20250;-78
2024/02/06 06:21:22;;;;;;;86.22;64.43;;;4.00;99.90;;;;;;5036535;28;20269;-78
2024/02/06 06:23:50;;;;;;;81.45;60.92;;;4.00;99.90;;;;;;5040634;28;20702;-78
2024/02/06 06:26:17;;;;;;;82.60;59.83;;;4.00;99.90;;;;;;5035352;28;20624;-75
2024/02/06 06:28:44;;;;;;;80.85;59.80;;;4.00;99.90;;;;;;5034410;28;20307;-76
2024/02/06 06:31:11;;;;;;;88.20;66.05;;;4.00;99.90;;;;;;5035613;28;20273;-76
2024/02/06 06:33:38;;;;;;;82.50;61.22;;;4.10;99.90;;;;;;5037046;28;20305;-76
2024/02/06 06:36:05;;;;;;;82.57;61.15;;;4.10;99.90;;;;;;5041434;28;20277;-77
2024/02/06 06:38:32;;;;;;;85.10;63.00;;;4.20;99.90;;;;;;5043273;28;20194;-78
2024/02/06 06:41:00;;;;;;;85.88;64.40;;;4.20;99.90;;;;;;5040343;28;20226;-80
2024/02/06 06:43:27;;;;;;;88.50;65.28;;;4.20;99.90;;;;;;5037762;28;20223;-76
2024/02/06 06:45:54;;;;;;;91.20;67.80;;;4.20;99.90;;;;;;5033979;28;20218;-78
2024/02/06 06:48:21;;;;;;;88.90;66.75;;;4.30;99.90;;;;;;5034138;28;20255;-77
2024/02/06 06:50:48;;;;;;;85.63;63.80;;;4.30;99.90;;;;;;5034577;28;20322;-77
2024/02/06 06:53:15;;;;;;;88.72;65.93;;;4.30;99.90;;;;;;5035239;28;20291;-76
2024/02/06 06:55:42;;;;;;;82.15;61.15;;;4.30;99.90;;;;;;5036149;28;20790;-77
2024/02/06 06:58:10;;;;;;;77.90;58.88;;;4.40;99.90;;;;;;5033873;28;20578;-76
2024/02/06 07:00:37;;;;;;;89.53;64.88;;;4.40;99.90;;;;;;5035624;28;20958;-76
2024/02/06 07:03:04;;;;;;;88.20;65.78;;;4.40;99.90;;;;;;5032834;28;20239;-76
2024/02/06 07:05:32;;;;;;;83.35;64.07;;;4.50;99.90;;;;;;5034877;28;20316;-78
2024/02/06 07:07:59;;;;;;;85.72;62.85;;;4.50;99.90;;;;;;5038000;28;20207;-78
2024/02/06 07:10:26;;;;;;;89.07;65.97;;;4.50;99.90;;;;;;5040908;28;20266;-77
2024/02/06 07:12:53;;;;;;;83.97;63.33;;;4.50;99.90;;;;;;5037030;28;20223;-77
2024/02/06 07:15:21;;;;;;;88.70;66.13;;;4.60;99.90;;;;;;5033933;28;20259;-78
2024/02/06 07:17:48;;;;;;;90.75;64.45;;;4.60;99.90;;;;;;5035836;28;20367;-77
2024/02/06 07:20:15;;;;;;;79.70;61.05;;;4.60;99.90;;;;;;5038772;28;20318;-77
2024/02/06 07:22:42;;;;;;;80.75;62.22;;;4.60;99.90;;;;;;5036643;28;20281;-78
2024/02/06 07:25:10;;;;;;;81.05;62.20;;;4.60;99.90;;;;;;5035800;28;20775;-76
2024/02/06 07:27:37;;;;;;;83.25;62.35;;;4.60;99.90;;;;;;5034446;28;20691;-76
2024/02/06 07:30:04;;;;;;;75.75;58.72;;;4.60;99.90;;;;;;5037504;28;20254;-77
2024/02/06 07:32:32;;;;;;;83.00;64.85;;;4.70;99.90;;;;;;5036913;28;20203;-75
2024/02/06 07:35:00;;;;;;;78.05;59.03;;;4.70;99.90;;;;;;5036379;28;20356;-77
2024/02/06 07:37:27;;;;;;;79.10;59.22;;;4.80;99.90;;;;;;5033245;28;20211;-78
2024/02/06 07:39:54;;;;;;;74.05;57.63;;;4.80;99.90;;;;;;5033248;28;20226;-79
2024/02/06 07:42:21;;;;;;;70.07;55.42;;;4.90;99.90;;;;;;5036041;28;20360;-77
2024/02/06 07:44:49;;;;;;;81.68;61.92;;;4.90;99.90;;;;;;5033713;28;20316;-77
2024/02/06 07:47:16;;;;;;;87.82;63.63;;;5.10;99.90;;;;;;5045842;28;20265;-76
2024/02/06 07:49:44;;;;;;;82.43;63.55;;;5.20;99.90;;;;;;5040982;28;20262;-79
2024/02/06 07:52:11;;;;;;;82.80;63.53;;;5.30;99.90;;;;;;5035686;28;20227;-77
2024/02/06 07:54:38;;;;;;;87.15;65.32;;;5.30;99.90;;;;;;5034938;28;20269;-79
2024/02/06 07:57:06;;;;;;;87.85;64.72;;;5.30;99.90;;;;;;5038002;28;20222;-80
2024/02/06 07:59:33;;;;;;;102.18;74.00;;;5.30;99.90;;;;;;5037564;28;20804;-79
2024/02/06 08:02:00;;;;;;;93.15;67.75;;;5.30;99.90;;;;;;5032648;28;20276;-78
2024/02/06 08:04:27;;;;;;;95.40;70.68;;;5.30;99.90;;;;;;5032273;28;20843;-78
2024/02/06 08:06:56;;;;;;;86.35;63.92;;;5.30;99.90;;;;;;5038684;28;20315;-77
2024/02/06 08:09:24;;;;;;;87.05;64.97;;;5.30;99.90;;;;;;5035045;28;20226;-80
2024/02/06 08:11:51;;;;;;;86.85;62.85;;;5.30;99.90;;;;;;5035470;28;20250;-77
2024/02/06 08:14:18;;;;;;;95.63;70.35;;;5.60;99.90;;;;;;5030099;28;20218;-78
2024/02/06 08:16:46;;;;;;;83.40;64.35;;;6.10;99.90;;;;;;5034583;28;20223;-76
2024/02/06 08:19:13;;;;;;;92.78;68.78;;;6.50;99.90;;;;;;5029703;28;20811;-77
2024/02/06 08:21:40;;;;;;;95.32;70.07;;;6.50;99.90;;;;;;5031938;28;20336;-77
2024/02/06 08:24:09;;;;;;;99.30;74.78;;;6.40;99.90;;;;;;5035545;28;20317;-77
2024/02/06 08:26:36;;;;;;;99.00;75.13;;;6.30;99.90;;;;;;5031887;28;20595;-77
2024/02/06 08:29:03;;;;;;;93.85;70.78;;;6.20;99.90;;;;;;5035827;28;20222;-78
2024/02/06 08:31:30;;;;;;;97.78;76.07;;;6.20;99.90;;;;;;5035652;28;20251;-76
2024/02/06 08:33:57;;;;;;;106.03;80.93;;;6.30;99.90;;;;;;5032507;28;20625;-76
2024/02/06 08:36:24;;;;;;;99.45;76.32;;;6.40;99.90;;;;;;5030908;28;20317;-74
2024/02/06 08:38:51;;;;;;;100.72;77.88;;;6.60;99.90;;;;;;5033623;28;21181;-76
2024/02/06 08:41:19;;;;;;;107.47;80.85;;;6.80;99.90;;;;;;5031873;28;20297;-75
2024/02/06 08:43:46;;;;;;;108.15;81.50;;;7.20;99.90;;;;;;5039182;28;20242;-76
2024/02/06 08:46:13;;;;;;;116.90;86.53;;;7.40;99.90;;;;;;5038008;28;20215;-77
2024/02/06 08:48:40;;;;;;;112.22;85.50;;;7.80;99.90;;;;;;5041772;28;20234;-75
2024/02/06 08:51:08;;;;;;;109.80;82.82;;;8.00;99.90;;;;;;5030046;28;20222;-75
2024/02/06 08:53:35;;;;;;;109.15;83.50;;;8.20;99.90;;;;;;5032395;28;20218;-79
2024/02/06 08:56:03;;;;;;;108.40;83.13;;;8.30;99.90;;;;;;5032782;28;20245;-77
2024/02/06 08:58:31;;;;;;;106.18;81.57;;;8.40;99.90;;;;;;5030041;28;20207;-76
2024/02/06 09:00:58;;;;;;;109.68;84.05;;;8.50;99.90;;;;;;5028070;28;20254;-77
2024/02/06 09:03:25;;;;;;;102.10;74.85;;;8.60;99.90;;;;;;5034107;28;20304;-76
2024/02/06 09:05:52;;;;;;;99.63;76.85;;;8.70;99.90;;;;;;5033542;28;20316;-76
2024/02/06 09:08:19;;;;;;;99.85;78.95;;;9.00;99.90;;;;;;5033041;28;20234;-78
2024/02/06 09:10:46;;;;;;;100.30;76.32;;;9.40;99.90;;;;;;5034623;28;20375;-79
2024/02/06 09:13:13;;;;;;;99.45;78.15;;;9.80;99.90;;;;;;5038423;28;20582;-79
2024/02/06 09:15:42;;;;;;;108.90;80.63;;;10.10;99.90;;;;;;5035700;28;20222;-78
2024/02/06 09:18:09;;;;;;;109.63;83.72;;;10.30;99.90;;;;;;5033884;28;20231;-79
2024/02/06 09:20:36;;;;;;;108.63;81.65;;;10.60;99.90;;;;;;5036364;28;20254;-77
2024/02/06 09:23:04;;;;;;;105.95;82.70;;;10.70;99.90;;;;;;5039651;28;20199;-77
2024/02/06 09:25:31;;;;;;;105.93;81.28;;;10.90;99.90;;;;;;5033905;28;20314;-77
2024/02/06 09:27:58;;;;;;;100.22;77.05;;;11.00;99.90;;;;;;5033627;28;21072;-78
2024/02/06 09:30:25;;;;;;;105.35;83.00;;;11.10;99.90;;;;;;5036566;28;20299;-78
2024/02/06 09:32:54;;;;;;;102.28;78.30;;;11.10;99.90;;;;;;5032879;28;20231;-78
2024/02/06 09:35:20;;;;;;;100.25;80.28;;;11.10;99.90;;;;;;5033012;28;20272;-77
2024/02/06 09:37:47;;;;;;;101.78;78.63;;;11.20;99.90;;;;;;5035254;28;20690;-77
2024/02/06 09:40:14;;;;;;;100.15;78.10;;;11.40;99.90;;;;;;5035691;28;20256;-77
2024/02/06 09:42:42;;;;;;;99.25;78.55;;;11.60;99.90;;;;;;5033303;28;20227;-77
2024/02/06 09:45:10;;;;;;;102.30;80.10;;;11.80;99.90;;;;;;5039328;28;20234;-77
2024/02/06 09:47:37;;;;;;;99.50;79.65;;;11.80;99.90;;;;;;5056304;28;20460;-77
2024/02/06 09:50:07;;;;;;;98.82;76.85;;;12.00;99.90;;;;;;5033605;28;20369;-77
2024/02/06 09:52:36;;;;;;;98.93;79.05;;;12.20;99.90;;;;;;5033809;28;20195;-77
2024/02/06 09:55:09;;;;;;;97.18;77.18;;;12.30;99.90;;;;;;5034051;28;20246;-76
2024/02/06 09:57:38;;;;;;;93.53;74.05;;;12.10;99.90;;;;;;5034122;28;20289;-76
2024/02/06 10:00:09;;;;;;;86.68;70.38;;;12.30;99.90;;;;;;5034223;28;20234;-78
2024/02/06 10:02:38;;;;;;;81.75;64.10;;;12.80;99.90;;;;;;5033504;28;20714;-76
2024/02/06 10:05:12;;;;;;;82.15;64.30;;;12.80;99.90;;;;;;5037928;28;20227;-76
2024/02/06 10:07:39;;;;;;;81.25;63.42;;;12.90;99.90;;;;;;5035722;28;20234;-77
2024/02/06 10:10:08;;;;;;;93.35;69.82;;;13.10;99.90;;;;;;5033045;28;20313;-77
2024/02/06 10:12:35;;;;;;;92.10;69.30;;;13.20;99.90;;;;;;5031962;28;20230;-78
2024/02/06 10:15:02;;;;;;;88.72;71.55;;;13.40;99.90;;;;;;5035837;28;20245;-77
2024/02/06 10:17:29;;;;;;;94.55;74.60;;;13.30;99.90;;;;;;5040726;28;20203;-78
2024/02/06 10:20:07;;;;;;;92.28;73.80;;;13.20;99.90;;;;;;5038026;28;20317;-76
2024/02/06 10:22:34;;;;;;;94.57;75.80;;;12.50;99.90;;;;;;5037453;28;20673;-78
2024/02/06 10:25:01;;;;;;;85.10;69.40;;;12.00;99.90;;;;;;5035932;28;20231;-77
2024/02/06 10:27:28;;;;;;;84.22;66.63;;;11.70;99.90;;;;;;5037668;28;20296;-79
2024/02/06 10:29:59;;;;;;;90.57;73.80;;;11.80;99.90;;;;;;5036908;28;21018;-76
2024/02/06 10:32:31;;;;;;;90.63;72.32;;;11.60;99.90;;;;;;5036579;28;20260;-78
2024/02/06 10:35:02;;;;;;;93.60;72.40;;;11.70;99.90;;;;;;5034320;28;20345;-78
2024/02/06 10:37:34;;;;;;;95.50;72.82;;;11.60;99.90;;;;;;5037869;28;20226;-78
2024/02/06 10:40:05;;;;;;;89.60;70.90;;;11.50;99.90;;;;;;5034260;28;20250;-77
2024/02/06 10:42:32;;;;;;;89.43;70.50;;;11.40;99.90;;;;;;5036153;28;20215;-79
2024/02/06 10:45:00;;;;;;;91.35;72.07;;;11.20;99.90;;;;;;5033229;28;20277;-76
2024/02/06 10:47:27;;;;;;;90.85;68.40;;;11.00;99.90;;;;;;5039505;28;20309;-77
2024/02/06 10:50:04;;;;;;;90.28;72.70;;;11.00;99.90;;;;;;5036700;28;20230;-78
2024/02/06 10:52:32;;;;;;;99.85;75.88;;;11.70;99.90;;;;;;5038765;28;20288;-79
2024/02/06 10:54:59;;;;;;;88.15;70.13;;;12.00;99.90;;;;;;5036693;28;20300;-79
2024/02/06 10:57:27;;;;;;;96.85;73.25;;;11.60;99.90;;;;;;5036285;28;20207;-77
2024/02/06 11:00:04;;;;;;;87.57;70.82;;;11.30;99.90;;;;;;5041138;28;20215;-78
2024/02/06 11:02:33;;;;;;;96.68;72.68;;;11.20;99.90;;;;;;5038440;28;20202;-77
2024/02/06 11:05:07;;;;;;;89.88;69.88;;;11.30;99.90;;;;;;5039234;28;20237;-76
2024/02/06 11:07:44;;;;;;;98.90;77.65;;;11.20;99.90;;;;;;5044322;28;20207;-77
2024/02/06 11:10:16;;;;;;;100.35;76.05;;;11.30;99.90;;;;;;5037838;28;20226;-79
2024/02/06 11:12:45;;;;;;;98.35;76.32;;;11.30;99.90;;;;;;5036865;28;20810;-77
2024/02/06 11:15:15;;;;;;;96.68;75.32;;;11.70;99.90;;;;;;5040117;28;20600;-78
2024/02/06 11:17:44;;;;;;;102.38;78.03;;;11.90;99.90;;;;;;5038714;28;20907;-77
2024/02/06 11:20:13;;;;;;;92.55;73.90;;;11.80;99.90;;;;;;5032424;28;20243;-79
2024/02/06 11:22:44;;;;;;;93.70;73.35;;;11.60;99.90;;;;;;5036171;28;20293;-79
2024/02/06 11:25:15;;;;;;;90.65;71.07;;;11.50;99.90;;;;;;5038250;28;20604;-80
2024/02/06 11:27:43;;;;;;;95.78;75.20;;;11.10;99.90;;;;;;5040911;28;20213;-78
2024/02/06 11:30:11;;;;;;;78.07;62.30;;;10.60;99.90;;;;;;5037181;28;20945;-78
2024/02/06 11:32:38;;;;;;;82.15;65.13;;;10.30;99.90;;;;;;5037724;28;20240;-80
2024/02/06 11:35:06;;;;;;;86.47;67.70;;;10.10;99.90;;;;;;5045250;28;21407;-77
2024/02/06 11:37:33;;;;;;;81.50;62.65;;;10.30;99.90;;;;;;5046522;28;20288;-77
2024/02/06 11:40:06;;;;;;;80.40;64.28;;;10.80;99.90;;;;;;5042906;28;20214;-79
2024/02/06 11:42:34;;;;;;;75.82;59.80;;;11.20;99.90;;;;;;5046881;28;20258;-77
2024/02/06 11:45:09;;;;;;;95.18;71.72;;;11.30;99.90;;;;;;5049134;28;20314;-79
2024/02/06 11:47:36;;;;;;;82.55;64.63;;;11.40;99.90;;;;;;5048082;28;20371;-79
2024/02/06 11:50:12;;;;;;;82.15;64.90;;;11.40;99.90;;;;;;5044949;28;20226;-79
2024/02/06 11:52:39;;;;;;;85.07;66.80;;;11.30;99.90;;;;;;5066206;28;20202;-80
2024/02/06 11:55:09;;;;;;;82.70;63.55;;;11.60;99.90;;;;;;5057868;28;21594;-79
2024/02/06 11:57:37;;;;;;;84.32;65.57;;;11.90;99.90;;;;;;5047119;28;20627;-79
2024/02/06 12:00:04;;;;;;;79.40;62.03;;;12.10;99.90;;;;;;5044253;28;20893;-79
2024/02/06 12:02:31;;;;;;;85.05;66.22;;;12.10;99.90;;;;;;5045228;28;20625;-79
2024/02/06 12:05:06;;;;;;;87.82;68.20;;;11.80;99.90;;;;;;5043930;28;20276;-80
2024/02/06 12:07:33;;;;;;;94.90;75.18;;;11.70;99.90;;;;;;5047142;28;20293;-78
2024/02/06 12:10:00;;;;;;;97.18;74.80;;;11.70;99.90;;;;;;5045257;28;20284;-77
2024/02/06 12:12:28;;;;;;;96.25;75.55;;;11.50;99.90;;;;;;5044961;28;20565;-78
2024/02/06 12:14:56;;;;;;;95.60;76.60;;;11.50;99.90;;;;;;5041532;28;20273;-80
2024/02/06 12:17:23;;;;;;;93.05;74.85;;;11.50;99.90;;;;;;5042237;28;20315;-79
2024/02/06 12:19:51;;;;;;;102.88;78.53;;;11.70;99.90;;;;;;5039841;28;20219;-79
2024/02/06 12:22:19;;;;;;;103.15;79.18;;;11.70;99.90;;;;;;5043993;28;20203;-79
2024/02/06 12:24:46;;;;;;;100.55;77.65;;;11.70;99.90;;;;;;5044326;28;20242;-79
2024/02/06 12:27:13;;;;;;;101.50;79.53;;;11.50;99.90;;;;;;5041588;28;20268;-79
2024/02/06 12:29:42;;;;;;;107.97;85.00;;;11.50;99.90;;;;;;5041171;28;20258;-79
2024/02/06 12:32:09;;;;;;;105.60;82.07;;;11.40;99.90;;;;;;5041763;28;20310;-81
2024/02/06 12:34:37;;;;;;;94.30;76.88;;;11.10;99.90;;;;;;5041459;28;20302;-79